ICE50R BIKF-BIAR
Flight info
| Callsign | ICE50R |
|---|---|
| Flight time | 0h 36m |
| Altitude | 21000 |
| Route | LUTER2A LUTER DCT ASKUR |
| Aircraft | A21N/M-SDE2E3FGHIRWXY/LB1 |
Departure
| Time | 2026-05-07 18:52 |
|---|---|
| Airport | Keflavik International Airport (BIKF) |
Arrival
| Time | 2026-05-07 19:28 |
|---|---|
| Airport | Akureyri International Airport (BIAR) |
| Time | Latitude | Longitude | Altitude | Speed | Heading |
|---|---|---|---|---|---|
| 2026-05-07 18:28 | 63.99247 | -22.61594 | 153 ft | 0 kts | 270° |
| 2026-05-07 18:41 | 63.99248 | -22.61581 | 146 ft | 2 kts | 270° |
| 2026-05-07 18:41 | 63.99248 | -22.61545 | 150 ft | 2 kts | 270° |
| 2026-05-07 18:41 | 63.99248 | -22.61508 | 148 ft | 2 kts | 270° |
| 2026-05-07 18:41 | 63.99248 | -22.61472 | 149 ft | 2 kts | 270° |
| 2026-05-07 18:42 | 63.99247 | -22.61434 | 149 ft | 2 kts | 228° |
| 2026-05-07 18:42 | 63.99254 | -22.61427 | 148 ft | 2 kts | 193° |
| 2026-05-07 18:42 | 63.99244 | -22.61428 | 149 ft | 0 kts | 182° |
| 2026-05-07 18:44 | 63.99237 | -22.61429 | 149 ft | 5 kts | 182° |
| 2026-05-07 18:44 | 63.99200 | -22.61423 | 152 ft | 4 kts | 162° |
| 2026-05-07 18:44 | 63.99184 | -22.61400 | 153 ft | 5 kts | 133° |
| 2026-05-07 18:44 | 63.99171 | -22.61246 | 157 ft | 11 kts | 90° |
| 2026-05-07 18:45 | 63.99173 | -22.61111 | 162 ft | 6 kts | 88° |
| 2026-05-07 18:45 | 63.99161 | -22.60975 | 164 ft | 13 kts | 134° |
| 2026-05-07 18:45 | 63.99072 | -22.60940 | 168 ft | 11 kts | 181° |
| 2026-05-07 18:45 | 63.99006 | -22.60941 | 171 ft | 8 kts | 179° |
| 2026-05-07 18:46 | 63.98914 | -22.60939 | 170 ft | 21 kts | 180° |
| 2026-05-07 18:46 | 63.98760 | -22.60941 | 166 ft | 25 kts | 179° |
| 2026-05-07 18:46 | 63.98565 | -22.60941 | 169 ft | 29 kts | 180° |
| 2026-05-07 18:46 | 63.98367 | -22.60945 | 166 ft | 28 kts | 177° |
| 2026-05-07 18:47 | 63.98178 | -22.60941 | 166 ft | 26 kts | 180° |
| 2026-05-07 18:47 | 63.98006 | -22.60942 | 169 ft | 23 kts | 180° |
| 2026-05-07 18:47 | 63.97852 | -22.60940 | 170 ft | 21 kts | 180° |
| 2026-05-07 18:47 | 63.97712 | -22.60943 | 169 ft | 20 kts | 180° |
| 2026-05-07 18:48 | 63.97577 | -22.60940 | 167 ft | 19 kts | 180° |
| 2026-05-07 18:48 | 63.97436 | -22.60943 | 165 ft | 26 kts | 180° |
| 2026-05-07 18:48 | 63.97200 | -22.60943 | 158 ft | 36 kts | 181° |
| 2026-05-07 18:48 | 63.96939 | -22.60941 | 148 ft | 38 kts | 180° |
| 2026-05-07 18:49 | 63.96687 | -22.60940 | 139 ft | 23 kts | 180° |
| 2026-05-07 18:49 | 63.96527 | -22.60940 | 135 ft | 12 kts | 180° |
| 2026-05-07 18:49 | 63.96467 | -22.60895 | 136 ft | 8 kts | 125° |
| 2026-05-07 18:49 | 63.96459 | -22.60806 | 138 ft | 3 kts | 96° |
| 2026-05-07 18:50 | 63.96460 | -22.60778 | 139 ft | 6 kts | 89° |
| 2026-05-07 18:50 | 63.96460 | -22.60637 | 143 ft | 8 kts | 89° |
| 2026-05-07 18:50 | 63.96494 | -22.60547 | 145 ft | 9 kts | 14° |
| 2026-05-07 18:50 | 63.96528 | -22.60541 | 147 ft | 0 kts | 358° |
| 2026-05-07 18:51 | 63.96542 | -22.60542 | 147 ft | 15 kts | 358° |
| 2026-05-07 18:51 | 63.96724 | -22.60541 | 155 ft | 62 kts | 0° |
| 2026-05-07 18:51 | 63.97644 | -22.60540 | 183 ft | 131 kts | 2° |
| 2026-05-07 18:52 | 63.98575 | -22.60539 | 764 ft | 130 kts | 1° |
| 2026-05-07 18:52 | 63.99476 | -22.60530 | 1448 ft | 130 kts | 3° |
| 2026-05-07 18:52 | 64.00074 | -22.60521 | 1889 ft | 129 kts | 2° |
| 2026-05-07 18:52 | 64.01000 | -22.60519 | 2362 ft | 141 kts | 2° |
| 2026-05-07 18:53 | 64.02027 | -22.60501 | 2742 ft | 154 kts | 2° |
| 2026-05-07 18:53 | 64.03162 | -22.60481 | 3049 ft | 173 kts | 2° |
| 2026-05-07 18:53 | 64.04438 | -22.60467 | 3436 ft | 190 kts | 2° |
| 2026-05-07 18:53 | 64.05697 | -22.59597 | 4071 ft | 196 kts | 37° |
| 2026-05-07 18:54 | 64.06377 | -22.56809 | 4534 ft | 222 kts | 78° |
| 2026-05-07 18:54 | 64.06474 | -22.53101 | 5013 ft | 244 kts | 87° |
| 2026-05-07 18:54 | 64.06444 | -22.49104 | 5690 ft | 256 kts | 88° |
| 2026-05-07 18:54 | 64.06396 | -22.45058 | 6541 ft | 260 kts | 88° |
| 2026-05-07 18:55 | 64.06355 | -22.40911 | 7396 ft | 263 kts | 86° |
| 2026-05-07 18:55 | 64.06416 | -22.36683 | 8189 ft | 268 kts | 83° |
| 2026-05-07 18:55 | 64.06548 | -22.32386 | 8991 ft | 272 kts | 82° |
| 2026-05-07 18:55 | 64.06705 | -22.28039 | 9801 ft | 277 kts | 81° |
| 2026-05-07 18:56 | 64.06870 | -22.23660 | 10487 ft | 285 kts | 81° |
| 2026-05-07 18:56 | 64.07042 | -22.18955 | 10719 ft | 309 kts | 82° |
| 2026-05-07 18:56 | 64.07220 | -22.13886 | 10912 ft | 332 kts | 82° |
| 2026-05-07 18:56 | 64.07404 | -22.08481 | 11296 ft | 346 kts | 83° |
| 2026-05-07 18:57 | 64.07580 | -22.02949 | 11965 ft | 352 kts | 83° |
| 2026-05-07 18:57 | 64.07749 | -21.97320 | 12687 ft | 356 kts | 83° |
| 2026-05-07 18:57 | 64.07917 | -21.91613 | 13413 ft | 361 kts | 83° |
| 2026-05-07 18:57 | 64.08085 | -21.85928 | 14123 ft | 365 kts | 83° |
| 2026-05-07 18:58 | 64.08259 | -21.80094 | 14746 ft | 370 kts | 83° |
| 2026-05-07 18:58 | 64.08432 | -21.74187 | 15408 ft | 373 kts | 83° |
| 2026-05-07 18:58 | 64.08606 | -21.68242 | 16070 ft | 377 kts | 83° |
| 2026-05-07 18:58 | 64.08779 | -21.62225 | 16714 ft | 380 kts | 83° |
| 2026-05-07 18:59 | 64.08951 | -21.56151 | 17342 ft | 384 kts | 83° |
| 2026-05-07 18:59 | 64.09120 | -21.50106 | 17954 ft | 388 kts | 83° |
| 2026-05-07 18:59 | 64.09289 | -21.43917 | 18554 ft | 391 kts | 83° |
| 2026-05-07 18:59 | 64.09458 | -21.37666 | 19083 ft | 395 kts | 83° |
| 2026-05-07 19:00 | 64.09626 | -21.31369 | 19623 ft | 398 kts | 83° |
| 2026-05-07 19:00 | 64.09792 | -21.25033 | 20168 ft | 401 kts | 84° |
| 2026-05-07 19:00 | 64.09951 | -21.18644 | 20694 ft | 404 kts | 84° |
| 2026-05-07 19:00 | 64.10109 | -21.12177 | 21107 ft | 407 kts | 84° |
| 2026-05-07 19:01 | 64.10267 | -21.05686 | 21199 ft | 412 kts | 84° |
| 2026-05-07 19:01 | 64.10424 | -20.99192 | 21204 ft | 415 kts | 84° |
| 2026-05-07 19:01 | 64.10586 | -20.92497 | 21200 ft | 416 kts | 84° |
| 2026-05-07 19:01 | 64.10740 | -20.85973 | 21197 ft | 416 kts | 84° |
| 2026-05-07 19:02 | 64.10892 | -20.79345 | 21198 ft | 415 kts | 84° |
| 2026-05-07 19:02 | 64.11041 | -20.72721 | 21198 ft | 416 kts | 84° |
| 2026-05-07 19:02 | 64.11185 | -20.66110 | 21198 ft | 416 kts | 84° |
| 2026-05-07 19:02 | 64.11324 | -20.59496 | 21198 ft | 416 kts | 84° |
| 2026-05-07 19:03 | 64.11463 | -20.52957 | 21198 ft | 415 kts | 83° |
| 2026-05-07 19:03 | 64.11903 | -20.46463 | 21198 ft | 411 kts | 72° |
| 2026-05-07 19:03 | 64.12874 | -20.40355 | 21198 ft | 406 kts | 61° |
| 2026-05-07 19:03 | 64.14331 | -20.34850 | 21198 ft | 402 kts | 50° |
| 2026-05-07 19:04 | 64.16205 | -20.30124 | 21195 ft | 398 kts | 39° |
| 2026-05-07 19:04 | 64.18419 | -20.26310 | 21196 ft | 395 kts | 30° |
| 2026-05-07 19:04 | 64.20704 | -20.22948 | 21194 ft | 395 kts | 30° |
| 2026-05-07 19:04 | 64.23016 | -20.19515 | 21216 ft | 395 kts | 31° |
| 2026-05-07 19:05 | 64.25325 | -20.16067 | 21213 ft | 395 kts | 31° |
| 2026-05-07 19:05 | 64.27631 | -20.12609 | 21211 ft | 395 kts | 31° |
| 2026-05-07 19:05 | 64.29939 | -20.09140 | 21213 ft | 395 kts | 31° |
| 2026-05-07 19:05 | 64.32242 | -20.05674 | 21211 ft | 395 kts | 31° |
| 2026-05-07 19:06 | 64.34549 | -20.02200 | 21208 ft | 395 kts | 31° |
| 2026-05-07 19:06 | 64.39128 | -19.95297 | 21214 ft | 395 kts | 31° |
| 2026-05-07 19:06 | 64.41431 | -19.91821 | 21214 ft | 395 kts | 31° |
| 2026-05-07 19:07 | 64.43734 | -19.88336 | 21217 ft | 395 kts | 31° |
| 2026-05-07 19:07 | 64.46030 | -19.84850 | 21219 ft | 395 kts | 31° |
| 2026-05-07 19:07 | 64.48328 | -19.81346 | 21216 ft | 395 kts | 31° |
| 2026-05-07 19:07 | 64.50625 | -19.77839 | 21217 ft | 395 kts | 31° |
| 2026-05-07 19:08 | 64.52892 | -19.74370 | 21212 ft | 395 kts | 31° |
| 2026-05-07 19:08 | 64.55183 | -19.70857 | 21223 ft | 395 kts | 31° |
| 2026-05-07 19:08 | 64.57479 | -19.67335 | 21219 ft | 395 kts | 31° |
| 2026-05-07 19:08 | 64.59775 | -19.63804 | 21245 ft | 395 kts | 31° |
| 2026-05-07 19:09 | 64.62060 | -19.60281 | 21207 ft | 393 kts | 31° |
| 2026-05-07 19:09 | 64.64314 | -19.56796 | 20926 ft | 384 kts | 31° |
| 2026-05-07 19:09 | 64.66526 | -19.53368 | 20597 ft | 380 kts | 31° |
| 2026-05-07 19:09 | 64.68720 | -19.49962 | 20202 ft | 377 kts | 31° |
| 2026-05-07 19:10 | 64.70903 | -19.46572 | 19806 ft | 375 kts | 31° |
| 2026-05-07 19:10 | 64.73075 | -19.43190 | 19430 ft | 373 kts | 31° |
| 2026-05-07 19:10 | 64.75228 | -19.39823 | 19051 ft | 371 kts | 31° |
| 2026-05-07 19:10 | 64.77371 | -19.36468 | 18685 ft | 369 kts | 31° |
| 2026-05-07 19:11 | 64.79478 | -19.33171 | 18282 ft | 367 kts | 31° |
| 2026-05-07 19:11 | 64.81600 | -19.29843 | 17856 ft | 365 kts | 31° |
| 2026-05-07 19:11 | 64.83708 | -19.26533 | 17433 ft | 363 kts | 32° |
| 2026-05-07 19:11 | 64.85803 | -19.23240 | 17019 ft | 361 kts | 32° |
| 2026-05-07 19:12 | 64.87882 | -19.19964 | 16610 ft | 359 kts | 32° |
| 2026-05-07 19:12 | 64.89948 | -19.16701 | 16214 ft | 356 kts | 32° |
| 2026-05-07 19:12 | 64.92004 | -19.13442 | 15820 ft | 354 kts | 32° |
| 2026-05-07 19:12 | 64.94021 | -19.10232 | 15440 ft | 352 kts | 32° |
| 2026-05-07 19:13 | 64.96045 | -19.07008 | 15049 ft | 350 kts | 32° |
| 2026-05-07 19:13 | 64.98054 | -19.03800 | 14663 ft | 347 kts | 32° |
| 2026-05-07 19:13 | 65.00053 | -19.00604 | 14287 ft | 346 kts | 32° |
| 2026-05-07 19:13 | 65.02041 | -18.97422 | 13897 ft | 343 kts | 32° |
| 2026-05-07 19:14 | 65.04018 | -18.94260 | 13481 ft | 341 kts | 32° |
| 2026-05-07 19:14 | 65.05951 | -18.91164 | 13068 ft | 338 kts | 32° |
| 2026-05-07 19:14 | 65.07898 | -18.88036 | 12649 ft | 338 kts | 33° |
| 2026-05-07 19:14 | 65.09838 | -18.84918 | 12238 ft | 336 kts | 33° |
| 2026-05-07 19:15 | 65.11776 | -18.81803 | 11835 ft | 334 kts | 33° |
| 2026-05-07 19:15 | 65.13664 | -18.78750 | 11430 ft | 318 kts | 33° |
| 2026-05-07 19:15 | 65.15428 | -18.75882 | 11041 ft | 294 kts | 33° |
| 2026-05-07 19:15 | 65.17061 | -18.73225 | 10638 ft | 275 kts | 33° |
| 2026-05-07 19:16 | 65.18569 | -18.70728 | 10323 ft | 258 kts | 36° |
| 2026-05-07 19:16 | 65.19888 | -18.67939 | 9985 ft | 251 kts | 44° |
| 2026-05-07 19:16 | 65.21005 | -18.64788 | 9595 ft | 247 kts | 50° |
| 2026-05-07 19:16 | 65.22049 | -18.61599 | 9286 ft | 241 kts | 50° |
| 2026-05-07 19:17 | 65.23077 | -18.58474 | 8981 ft | 239 kts | 50° |
| 2026-05-07 19:17 | 65.24103 | -18.55357 | 8684 ft | 238 kts | 50° |
| 2026-05-07 19:17 | 65.25122 | -18.52248 | 8394 ft | 236 kts | 50° |
| 2026-05-07 19:17 | 65.26117 | -18.49210 | 8085 ft | 235 kts | 50° |
| 2026-05-07 19:18 | 65.27121 | -18.46145 | 7809 ft | 233 kts | 50° |
| 2026-05-07 19:18 | 65.28117 | -18.43100 | 7518 ft | 232 kts | 50° |
| 2026-05-07 19:18 | 65.29112 | -18.40055 | 7229 ft | 231 kts | 50° |
| 2026-05-07 19:18 | 65.30097 | -18.37029 | 6941 ft | 230 kts | 50° |
| 2026-05-07 19:19 | 65.31066 | -18.34046 | 6659 ft | 227 kts | 50° |
| 2026-05-07 19:19 | 65.32025 | -18.31081 | 6364 ft | 222 kts | 50° |
| 2026-05-07 19:19 | 65.32957 | -18.28195 | 6058 ft | 217 kts | 50° |
| 2026-05-07 19:19 | 65.33869 | -18.25370 | 5744 ft | 213 kts | 50° |
| 2026-05-07 19:20 | 65.34771 | -18.22571 | 5441 ft | 210 kts | 50° |
| 2026-05-07 19:20 | 65.35650 | -18.19838 | 5178 ft | 202 kts | 50° |
| 2026-05-07 19:20 | 65.36482 | -18.17245 | 5037 ft | 192 kts | 50° |
| 2026-05-07 19:20 | 65.37279 | -18.14763 | 4997 ft | 182 kts | 50° |
| 2026-05-07 19:21 | 65.38037 | -18.12401 | 4994 ft | 177 kts | 49° |
| 2026-05-07 19:21 | 65.38783 | -18.10086 | 5004 ft | 177 kts | 49° |
| 2026-05-07 19:21 | 65.39584 | -18.07849 | 5010 ft | 175 kts | 40° |
| 2026-05-07 19:21 | 65.40592 | -18.06249 | 5014 ft | 174 kts | 23° |
| 2026-05-07 19:22 | 65.41763 | -18.05569 | 5012 ft | 173 kts | 4° |
| 2026-05-07 19:22 | 65.42974 | -18.05602 | 5012 ft | 174 kts | 360° |
| 2026-05-07 19:22 | 65.44194 | -18.05639 | 5006 ft | 178 kts | 360° |
| 2026-05-07 19:22 | 65.45409 | -18.05702 | 5014 ft | 175 kts | 359° |
| 2026-05-07 19:23 | 65.46620 | -18.05777 | 5013 ft | 173 kts | 359° |
| 2026-05-07 19:23 | 65.47836 | -18.05855 | 5012 ft | 174 kts | 359° |
| 2026-05-07 19:23 | 65.49046 | -18.05934 | 5011 ft | 175 kts | 359° |
| 2026-05-07 19:23 | 65.50258 | -18.06014 | 4988 ft | 171 kts | 359° |
| 2026-05-07 19:24 | 65.51362 | -18.06087 | 4758 ft | 148 kts | 359° |
| 2026-05-07 19:24 | 65.52349 | -18.06153 | 4468 ft | 138 kts | 359° |
| 2026-05-07 19:24 | 65.53301 | -18.06215 | 4136 ft | 136 kts | 358° |
| 2026-05-07 19:24 | 65.54240 | -18.06278 | 3822 ft | 136 kts | 358° |
| 2026-05-07 19:25 | 65.55183 | -18.06341 | 3417 ft | 136 kts | 358° |
| 2026-05-07 19:25 | 65.56124 | -18.06375 | 2997 ft | 134 kts | 358° |
| 2026-05-07 19:25 | 65.57058 | -18.06403 | 2600 ft | 133 kts | 359° |
| 2026-05-07 19:25 | 65.57990 | -18.06373 | 2177 ft | 133 kts | 360° |
| 2026-05-07 19:26 | 65.58906 | -18.06321 | 1718 ft | 133 kts | 1° |
| 2026-05-07 19:26 | 65.59829 | -18.06186 | 1352 ft | 132 kts | 5° |
| 2026-05-07 19:26 | 65.60738 | -18.06215 | 1039 ft | 130 kts | 355° |
| 2026-05-07 19:26 | 65.61637 | -18.06443 | 738 ft | 129 kts | 354° |
| 2026-05-07 19:27 | 65.62530 | -18.06629 | 525 ft | 129 kts | 355° |
| 2026-05-07 19:27 | 65.63422 | -18.06776 | 319 ft | 127 kts | 355° |
| 2026-05-07 19:27 | 65.64295 | -18.06938 | 109 ft | 127 kts | 354° |
| 2026-05-07 19:27 | 65.65155 | -18.07099 | 21 ft | 115 kts | 355° |
| 2026-05-07 19:28 | 65.65723 | -18.07210 | 20 ft | 53 kts | 355° |
| 2026-05-07 19:28 | 65.66088 | -18.07285 | 16 ft | 52 kts | 355° |
| 2026-05-07 19:28 | 65.66443 | -18.07352 | 19 ft | 50 kts | 355° |
| 2026-05-07 19:28 | 65.66755 | -18.07416 | 17 ft | 17 kts | 356° |
| 2026-05-07 19:29 | 65.66832 | -18.07472 | 18 ft | 11 kts | 343° |
| 2026-05-07 19:29 | 65.66850 | -18.07423 | 18 ft | 1 kts | 115° |
| 2026-05-07 19:29 | 65.66839 | -18.07417 | 18 ft | 5 kts | 170° |
| 2026-05-07 19:29 | 65.66729 | -18.07400 | 18 ft | 22 kts | 179° |
| 2026-05-07 19:30 | 65.66569 | -18.07374 | 20 ft | 25 kts | 176° |
| 2026-05-07 19:30 | 65.66382 | -18.07341 | 18 ft | 29 kts | 176° |
| 2026-05-07 19:30 | 65.66165 | -18.07304 | 15 ft | 33 kts | 173° |
| 2026-05-07 19:30 | 65.65943 | -18.07252 | 16 ft | 31 kts | 176° |
| 2026-05-07 19:31 | 65.65734 | -18.07220 | 19 ft | 30 kts | 176° |
| 2026-05-07 19:31 | 65.65569 | -18.07193 | 18 ft | 0 kts | 176° |
| 2026-05-07 19:31 | 65.65545 | -18.07189 | 18 ft | 9 kts | 176° |
| 2026-05-07 19:31 | 65.65472 | -18.07287 | 17 ft | 10 kts | 267° |
| 2026-05-07 19:32 | 65.65476 | -18.07375 | 17 ft | 1 kts | 262° |
| 2026-05-07 19:32 | 65.65459 | -18.07416 | 17 ft | 7 kts | 201° |
| 2026-05-07 19:32 | 65.65413 | -18.07421 | 17 ft | 5 kts | 203° |
| 2026-05-07 19:32 | 65.65413 | -18.07471 | 17 ft | 1 kts | 305° |
| 2026-05-07 19:33 | 65.65418 | -18.07469 | 17 ft | 0 kts | 351° |
| 2026-05-07 19:33 | 65.65415 | -18.07469 | 17 ft | 0 kts | 338° |